Time;durP1;ratioP1;P1;durP2;ratioP2;P2;SDS_P1;SDS_P2;PMS_P1;PMS_P2;Temp;Humidity;BMP_temperature;BMP_pressure;BME280_temperature;BME280_humidity;BME280_pressure;Samples;Min_cycle;Max_cycle;Signal;HPM_P1;HPM_P2
2024/02/13 00:01:40;;;;;;;93.38;13.32;;;10.70;95.50;;;;;;5066449;28;20068;-50
2024/02/13 00:04:08;;;;;;;86.13;13.73;;;10.70;95.50;;;;;;5065137;28;20033;-50
2024/02/13 00:06:34;;;;;;;72.70;13.52;;;10.70;95.60;;;;;;5066433;28;20021;-50
2024/02/13 00:08:59;;;;;;;76.38;12.68;;;10.70;95.60;;;;;;5064963;28;20033;-50
2024/02/13 00:11:25;;;;;;;78.20;11.38;;;10.70;95.60;;;;;;5066176;28;20072;-50
2024/02/13 00:13:51;;;;;;;77.28;12.57;;;10.60;95.60;;;;;;5048245;28;20040;-49
2024/02/13 00:16:20;;;;;;;75.60;12.68;;;10.70;95.70;;;;;;5066010;28;20021;-50
2024/02/13 00:18:52;;;;;;;90.53;12.77;;;10.60;95.70;;;;;;5066107;28;20492;-50
2024/02/13 00:21:17;;;;;;;67.35;12.35;;;10.60;95.70;;;;;;5066142;28;20029;-50
2024/02/13 00:23:43;;;;;;;72.82;12.43;;;10.60;95.70;;;;;;5064878;28;20052;-50
2024/02/13 00:26:09;;;;;;;74.00;12.50;;;10.60;95.60;;;;;;5065970;28;20041;-50
2024/02/13 00:28:38;;;;;;;64.68;13.27;;;10.60;95.70;;;;;;5064701;28;20029;-50
2024/02/13 00:31:07;;;;;;;58.08;12.05;;;10.60;95.70;;;;;;5064866;28;20108;-50
2024/02/13 00:33:34;;;;;;;59.28;11.35;;;10.60;95.70;;;;;;5066023;28;20025;-50
2024/02/13 00:36:01;;;;;;;59.65;11.68;;;10.60;95.80;;;;;;5065914;28;20036;-50
2024/02/13 00:38:29;;;;;;;63.25;11.63;;;10.60;95.80;;;;;;5066111;28;20032;-50
2024/02/13 00:40:54;;;;;;;66.13;12.23;;;10.60;95.80;;;;;;5065952;28;20025;-49
2024/02/13 00:43:20;;;;;;;65.78;12.00;;;10.60;95.80;;;;;;5065795;28;20068;-50
2024/02/13 00:45:49;;;;;;;60.83;11.32;;;10.60;95.80;;;;;;5065937;28;20028;-50
2024/02/13 00:48:17;;;;;;;60.20;10.20;;;10.50;95.80;;;;;;5064984;28;20044;-50
2024/02/13 00:50:44;;;;;;;65.25;10.45;;;10.50;95.80;;;;;;5066536;28;20053;-50
2024/02/13 00:53:10;;;;;;;56.83;10.95;;;10.50;95.80;;;;;;5064914;28;20049;-50
2024/02/13 00:55:36;;;;;;;55.83;10.77;;;10.50;95.90;;;;;;5065953;28;20044;-50
2024/02/13 00:58:02;;;;;;;78.10;12.20;;;10.50;95.90;;;;;;5065873;28;20094;-50
2024/02/13 01:00:28;;;;;;;47.75;9.60;;;10.50;95.90;;;;;;5066026;28;20025;-50
2024/02/13 01:02:55;;;;;;;50.53;9.25;;;10.50;95.90;;;;;;5065691;28;20432;-50
2024/02/13 01:05:21;;;;;;;58.58;10.60;;;10.40;95.90;;;;;;5048063;28;20029;-49
2024/02/13 01:07:47;;;;;;;49.63;9.82;;;10.50;95.90;;;;;;5065237;28;20072;-50
2024/02/13 01:10:15;;;;;;;74.75;11.23;;;10.40;96.00;;;;;;5069422;28;20036;-50
2024/02/13 01:12:41;;;;;;;51.60;9.73;;;10.40;96.00;;;;;;5068073;28;20033;-50
2024/02/13 01:15:07;;;;;;;43.60;10.40;;;10.40;95.90;;;;;;5068255;28;20025;-50
2024/02/13 01:17:33;;;;;;;50.03;9.30;;;10.40;96.00;;;;;;5067971;28;20021;-50
2024/02/13 01:19:59;;;;;;;57.42;9.27;;;10.40;96.00;;;;;;5051274;28;20070;-50
2024/02/13 01:22:24;;;;;;;43.78;10.18;;;10.40;96.10;;;;;;5069232;28;20033;-50
2024/02/13 01:24:51;;;;;;;52.85;9.75;;;10.40;96.10;;;;;;5069212;28;20380;-50
2024/02/13 01:27:18;;;;;;;58.50;9.95;;;10.40;96.10;;;;;;5067828;28;20047;-50
2024/02/13 01:29:44;;;;;;;47.78;9.32;;;10.40;96.10;;;;;;5069010;28;20074;-50
2024/02/13 01:32:10;;;;;;;54.95;9.40;;;10.30;96.10;;;;;;5067870;28;20018;-50
2024/02/13 01:34:35;;;;;;;35.03;8.55;;;10.30;96.20;;;;;;5067764;28;20088;-50
2024/02/13 01:37:01;;;;;;;40.65;9.00;;;10.30;96.10;;;;;;5068808;28;20033;-50
2024/02/13 01:39:27;;;;;;;51.90;9.52;;;10.30;96.10;;;;;;5068728;28;20051;-50
2024/02/13 01:41:53;;;;;;;37.53;8.60;;;10.30;96.20;;;;;;5067648;28;20048;-50
2024/02/13 01:44:19;;;;;;;48.83;8.25;;;10.30;96.20;;;;;;5067660;28;20045;-50
2024/02/13 01:46:45;;;;;;;34.30;8.07;;;10.30;96.10;;;;;;5050870;28;20063;-48
2024/02/13 01:49:10;;;;;;;43.80;9.07;;;10.30;96.20;;;;;;5050719;28;20037;-50
2024/02/13 01:51:36;;;;;;;45.75;8.63;;;10.30;96.20;;;;;;5050753;28;20032;-50
2024/02/13 01:54:04;;;;;;;42.13;7.97;;;10.20;96.20;;;;;;5067298;28;20056;-50
2024/02/13 01:56:30;;;;;;;42.17;8.98;;;10.30;96.20;;;;;;5069299;28;20080;-50
2024/02/13 01:58:56;;;;;;;34.88;7.45;;;10.30;96.30;;;;;;5068653;28;20098;-50
2024/02/13 02:01:24;;;;;;;39.65;7.22;;;10.20;96.30;;;;;;5069034;28;20055;-50
2024/02/13 02:03:50;;;;;;;38.75;7.90;;;10.20;96.20;;;;;;5050973;28;20536;-50
2024/02/13 02:06:16;;;;;;;31.85;7.95;;;10.20;96.30;;;;;;5067418;28;20021;-50
2024/02/13 02:08:43;;;;;;;36.63;8.18;;;10.20;96.30;;;;;;5068204;28;20041;-50
2024/02/13 02:11:10;;;;;;;24.80;7.15;;;10.20;96.30;;;;;;5050649;28;20033;-50
2024/02/13 02:13:36;;;;;;;38.22;7.68;;;10.20;96.30;;;;;;5050743;28;20034;-50
2024/02/13 02:16:02;;;;;;;29.08;7.65;;;10.20;96.30;;;;;;5067068;28;20045;-50
2024/02/13 02:18:29;;;;;;;37.90;7.50;;;10.10;96.30;;;;;;5067014;28;20059;-50
2024/02/13 02:20:54;;;;;;;31.88;7.43;;;10.20;96.30;;;;;;5066038;28;20037;-50
2024/02/13 02:23:21;;;;;;;34.40;7.18;;;10.20;96.30;;;;;;5066884;28;20060;-50
2024/02/13 02:25:47;;;;;;;42.55;8.43;;;10.20;96.30;;;;;;5068038;28;20381;-50
2024/02/13 02:28:15;;;;;;;35.10;7.60;;;10.20;96.30;;;;;;5067906;28;20048;-50
2024/02/13 02:30:42;;;;;;;36.78;7.85;;;10.10;96.30;;;;;;5050268;28;20504;-50
2024/02/13 02:33:08;;;;;;;36.72;7.30;;;10.10;96.40;;;;;;5067189;28;20029;-50
2024/02/13 02:35:34;;;;;;;31.63;7.05;;;10.10;96.40;;;;;;5067750;28;20020;-50
2024/02/13 02:38:00;;;;;;;32.38;8.02;;;10.00;96.50;;;;;;5066664;28;20100;-50
2024/02/13 02:40:26;;;;;;;27.13;6.35;;;10.10;96.50;;;;;;5066604;28;20029;-50
2024/02/13 02:42:52;;;;;;;32.30;7.00;;;10.00;96.50;;;;;;5066719;28;20044;-50
2024/02/13 02:45:18;;;;;;;30.98;6.40;;;10.10;96.60;;;;;;5049767;28;20137;-50
2024/02/13 02:47:43;;;;;;;32.08;6.10;;;10.00;96.50;;;;;;5067574;28;20041;-50
2024/02/13 02:50:12;;;;;;;33.42;7.80;;;10.10;96.50;;;;;;5049867;28;20021;-50
2024/02/13 02:52:38;;;;;;;35.17;8.10;;;10.00;96.50;;;;;;5067627;28;20032;-50
2024/02/13 02:55:05;;;;;;;31.02;6.70;;;10.00;96.50;;;;;;5066302;28;20051;-50
2024/02/13 02:57:32;;;;;;;27.17;6.80;;;10.00;96.50;;;;;;5049463;28;20025;-50
2024/02/13 02:59:58;;;;;;;27.00;6.43;;;10.00;96.50;;;;;;5066227;28;20477;-50
2024/02/13 03:02:24;;;;;;;29.05;5.38;;;10.00;96.50;;;;;;5067337;28;20028;-50
2024/02/13 03:04:49;;;;;;;35.70;6.15;;;10.00;96.60;;;;;;5067285;28;20044;-50
2024/02/13 03:07:15;;;;;;;34.72;6.93;;;10.00;96.60;;;;;;5067235;28;20079;-50
2024/02/13 03:09:41;;;;;;;32.20;7.15;;;9.90;96.50;;;;;;5067173;28;20033;-50
2024/02/13 03:12:07;;;;;;;25.80;5.95;;;9.90;96.60;;;;;;5067135;28;20032;-50
2024/02/13 03:14:35;;;;;;;26.85;5.88;;;9.90;96.60;;;;;;5065593;28;20033;-50
2024/02/13 03:17:00;;;;;;;25.75;6.30;;;9.90;96.60;;;;;;5067149;28;20422;-50
2024/02/13 03:19:26;;;;;;;28.95;5.82;;;9.90;96.60;;;;;;5067079;28;20033;-50
2024/02/13 03:21:52;;;;;;;22.38;5.50;;;9.90;96.60;;;;;;5067115;28;20017;-50
2024/02/13 03:24:17;;;;;;;24.73;5.75;;;9.90;96.70;;;;;;5067069;28;20056;-50
2024/02/13 03:26:43;;;;;;;23.50;6.35;;;9.90;96.70;;;;;;5066796;28;20075;-50
2024/02/13 03:29:09;;;;;;;23.58;5.57;;;9.90;96.70;;;;;;5066689;28;20062;-50
2024/02/13 03:31:34;;;;;;;23.80;5.40;;;9.90;96.70;;;;;;5066593;28;20054;-50
2024/02/13 03:34:00;;;;;;;25.75;6.25;;;9.90;96.70;;;;;;5065602;28;20039;-50
2024/02/13 03:36:26;;;;;;;24.92;5.82;;;9.80;96.80;;;;;;5066703;28;20056;-50
2024/02/13 03:38:53;;;;;;;25.92;5.72;;;9.80;96.80;;;;;;5065365;28;20041;-50
2024/02/13 03:41:19;;;;;;;25.50;5.80;;;9.80;96.80;;;;;;5065326;28;20017;-50
2024/02/13 03:43:46;;;;;;;25.10;5.72;;;9.80;96.90;;;;;;5065314;28;20045;-50
2024/02/13 03:46:12;;;;;;;28.15;5.80;;;9.80;96.80;;;;;;5065250;28;20029;-50
2024/02/13 03:48:37;;;;;;;24.45;5.95;;;9.80;96.80;;;;;;5048570;28;20025;-50
2024/02/13 03:51:04;;;;;;;27.08;6.05;;;9.80;96.90;;;;;;5066577;28;20484;-50
2024/02/13 03:53:29;;;;;;;20.00;4.93;;;9.80;96.80;;;;;;5066514;28;20415;-50
2024/02/13 03:55:55;;;;;;;22.50;4.80;;;9.80;96.90;;;;;;5048709;28;20041;-50
2024/02/13 03:58:21;;;;;;;29.63;5.95;;;9.70;96.90;;;;;;5048461;28;20215;-49
2024/02/13 04:00:46;;;;;;;25.00;5.57;;;9.70;96.90;;;;;;5065311;28;20044;-50
2024/02/13 04:03:12;;;;;;;17.38;5.22;;;9.70;96.90;;;;;;5048607;28;20055;-50
2024/02/13 04:05:39;;;;;;;19.73;5.35;;;9.70;97.00;;;;;;5066408;28;20048;-50
2024/02/13 04:08:07;;;;;;;24.30;5.50;;;9.70;96.90;;;;;;5066211;28;20035;-50
2024/02/13 04:10:34;;;;;;;20.67;5.65;;;9.70;97.00;;;;;;5048560;28;20024;-50
2024/02/13 04:13:00;;;;;;;17.85;5.03;;;9.70;97.00;;;;;;5065300;28;20041;-50
2024/02/13 04:15:25;;;;;;;24.10;5.10;;;9.70;97.00;;;;;;5066231;28;20039;-50
2024/02/13 04:17:51;;;;;;;18.27;4.65;;;9.70;97.10;;;;;;5066210;28;20029;-50
2024/02/13 04:20:17;;;;;;;23.83;5.53;;;9.60;97.00;;;;;;5066228;28;20071;-50
2024/02/13 04:22:43;;;;;;;17.35;5.50;;;9.70;97.10;;;;;;5066204;28;20033;-50
2024/02/13 04:25:09;;;;;;;22.52;4.70;;;9.70;97.10;;;;;;5066203;28;20055;-50
2024/02/13 04:27:38;;;;;;;16.98;4.43;;;9.60;97.10;;;;;;5048277;28;20043;-50
2024/02/13 04:33:09;;;;;;;17.67;4.80;;;9.60;97.10;;;;;;5065318;28;20044;-50
2024/02/13 04:35:35;;;;;;;19.02;4.88;;;9.60;97.10;;;;;;5066016;28;20084;-50
2024/02/13 04:38:03;;;;;;;18.13;4.72;;;9.60;97.10;;;;;;5048130;28;20414;-50
2024/02/13 04:40:29;;;;;;;24.17;5.13;;;9.60;97.10;;;;;;5065837;28;20576;-50
2024/02/13 04:42:54;;;;;;;16.20;4.72;;;9.60;97.20;;;;;;5048977;28;20048;-50
2024/02/13 04:45:20;;;;;;;18.25;4.65;;;9.60;97.20;;;;;;5086209;28;20025;-50
2024/02/13 04:47:46;;;;;;;13.63;4.32;;;9.60;97.20;;;;;;5086553;28;20739;-50
2024/02/13 04:50:13;;;;;;;14.50;4.93;;;9.50;97.20;;;;;;5089374;28;20021;-50
2024/02/13 04:52:38;;;;;;;16.63;3.92;;;9.60;97.20;;;;;;5089332;28;20040;-50
2024/02/13 04:55:04;;;;;;;14.88;4.57;;;9.60;97.20;;;;;;5088694;28;20048;-50
2024/02/13 04:57:30;;;;;;;13.50;4.45;;;9.50;97.20;;;;;;5088232;28;20496;-50
2024/02/13 04:59:57;;;;;;;22.70;4.72;;;9.50;97.20;;;;;;5089340;28;20054;-50
2024/02/13 05:02:24;;;;;;;17.95;4.57;;;9.50;97.20;;;;;;5089519;28;20021;-50
2024/02/13 05:07:35;;;;;;;13.88;3.45;;;9.50;97.20;;;;;;5088409;28;20461;-50
2024/02/13 05:10:02;;;;;;;16.98;4.85;;;9.50;97.20;;;;;;5089478;28;20055;-50
2024/02/13 05:12:27;;;;;;;12.73;4.55;;;9.50;97.10;;;;;;5089455;28;20025;-50
2024/02/13 05:14:53;;;;;;;13.60;3.60;;;9.50;97.20;;;;;;5086816;28;20349;-49
2024/02/13 05:17:20;;;;;;;17.15;4.00;;;9.60;97.20;;;;;;5089222;28;20063;-50
2024/02/13 05:19:46;;;;;;;16.70;4.13;;;9.50;97.30;;;;;;5088157;28;20029;-50
2024/02/13 05:22:13;;;;;;;14.00;3.92;;;9.50;97.30;;;;;;5089230;28;20088;-50
2024/02/13 05:24:39;;;;;;;16.10;3.80;;;9.50;97.30;;;;;;5071415;28;20218;-49
2024/02/13 05:27:07;;;;;;;16.77;4.13;;;9.50;97.30;;;;;;5088084;28;20427;-50
2024/02/13 05:29:34;;;;;;;16.15;3.95;;;9.50;97.20;;;;;;5089205;28;20063;-50
2024/02/13 05:31:59;;;;;;;15.63;4.55;;;9.50;97.20;;;;;;5087763;28;20105;-50
2024/02/13 05:34:25;;;;;;;19.42;4.40;;;9.50;97.20;;;;;;5089404;28;20028;-50
2024/02/13 05:36:51;;;;;;;14.85;3.92;;;9.50;97.20;;;;;;5087766;28;20078;-50
2024/02/13 05:39:17;;;;;;;11.30;3.55;;;9.50;97.20;;;;;;5088046;28;20120;-50
2024/02/13 05:41:43;;;;;;;16.38;4.40;;;9.50;97.30;;;;;;5089038;28;20036;-50
2024/02/13 05:44:09;;;;;;;17.33;4.80;;;9.50;97.30;;;;;;5088954;28;20078;-50
2024/02/13 05:46:34;;;;;;;16.15;3.67;;;9.50;97.30;;;;;;5088883;28;20028;-50
2024/02/13 05:49:00;;;;;;;13.60;3.33;;;9.50;97.30;;;;;;5070797;28;20038;-50
2024/02/13 05:51:29;;;;;;;17.67;4.22;;;9.50;97.30;;;;;;5087265;28;20021;-50
2024/02/13 05:53:55;;;;;;;22.15;4.18;;;9.50;97.20;;;;;;5086518;28;20092;-50
2024/02/13 05:56:21;;;;;;;11.05;3.40;;;9.50;97.20;;;;;;5088316;28;20024;-50
2024/02/13 05:58:47;;;;;;;10.50;3.25;;;9.50;97.20;;;;;;5088719;28;20035;-50
2024/02/13 06:01:13;;;;;;;18.95;4.18;;;9.50;97.30;;;;;;5070618;28;20020;-50
2024/02/13 06:03:39;;;;;;;13.30;3.65;;;9.50;97.30;;;;;;5087310;28;20063;-50
2024/02/13 06:06:06;;;;;;;21.92;4.95;;;9.50;97.30;;;;;;5087266;28;20025;-50
2024/02/13 06:08:32;;;;;;;22.85;4.88;;;9.50;97.30;;;;;;5086922;28;20040;-50
2024/02/13 06:10:59;;;;;;;27.58;4.47;;;9.50;97.30;;;;;;5087159;28;20118;-50
2024/02/13 06:13:26;;;;;;;24.77;5.03;;;9.50;97.30;;;;;;5088389;28;20488;-50
2024/02/13 06:15:53;;;;;;;25.55;5.80;;;9.40;97.30;;;;;;5087212;28;20039;-50
2024/02/13 06:18:18;;;;;;;27.65;5.43;;;9.50;97.30;;;;;;5086875;28;20032;-50
2024/02/13 06:20:44;;;;;;;35.17;5.40;;;9.40;97.30;;;;;;5086943;28;20042;-50
2024/02/13 06:23:10;;;;;;;31.17;5.07;;;9.50;97.40;;;;;;5087982;28;20036;-50
2024/02/13 06:25:36;;;;;;;28.40;5.30;;;9.40;97.40;;;;;;5086894;28;20456;-50
2024/02/13 06:28:01;;;;;;;30.08;5.35;;;9.50;97.40;;;;;;5087823;28;20036;-50
2024/02/13 06:30:27;;;;;;;23.92;5.30;;;9.50;97.40;;;;;;5088038;28;20024;-50
2024/02/13 06:32:53;;;;;;;21.92;4.90;;;9.40;97.40;;;;;;5087846;28;20032;-50
2024/02/13 06:35:19;;;;;;;31.40;5.53;;;9.40;97.40;;;;;;5086641;28;20104;-50
2024/02/13 06:37:45;;;;;;;47.67;6.30;;;9.40;97.50;;;;;;5086464;28;20032;-50
2024/02/13 06:40:11;;;;;;;37.05;5.53;;;9.40;97.50;;;;;;5086253;28;20031;-49
2024/02/13 06:42:37;;;;;;;52.50;7.07;;;9.40;97.50;;;;;;5086297;28;20041;-50
2024/02/13 06:45:02;;;;;;;36.63;6.18;;;9.40;97.60;;;;;;5086434;28;20169;-50
2024/02/13 06:47:28;;;;;;;45.90;6.38;;;9.40;97.80;;;;;;5086330;28;20024;-50
2024/02/13 06:49:54;;;;;;;51.55;8.70;;;9.40;97.90;;;;;;5087472;28;20028;-50
2024/02/13 06:52:21;;;;;;;42.10;6.28;;;9.40;98.00;;;;;;5087156;28;20059;-50
2024/02/13 06:54:47;;;;;;;32.08;5.75;;;9.40;98.10;;;;;;5086339;28;20050;-50
2024/02/13 06:57:12;;;;;;;43.78;6.70;;;9.40;98.10;;;;;;5087376;28;20016;-50
2024/02/13 06:59:38;;;;;;;50.20;6.65;;;9.40;98.10;;;;;;5069603;28;20048;-50
2024/02/13 07:02:03;;;;;;;45.15;7.15;;;9.40;98.00;;;;;;5088137;28;20025;-50
2024/02/13 07:04:29;;;;;;;23.67;4.43;;;9.40;98.00;;;;;;5087450;28;20040;-50
2024/02/13 07:06:57;;;;;;;37.58;5.88;;;9.40;97.80;;;;;;5086698;28;20020;-50
2024/02/13 07:09:25;;;;;;;30.80;6.00;;;9.30;97.70;;;;;;5087148;28;20032;-50
2024/02/13 07:11:51;;;;;;;25.33;5.10;;;9.30;97.70;;;;;;5085869;28;20035;-50
2024/02/13 07:14:17;;;;;;;38.20;5.80;;;9.30;97.60;;;;;;5085616;28;20051;-50
2024/02/13 07:16:44;;;;;;;24.23;4.75;;;9.30;97.50;;;;;;5085671;28;20025;-50
2024/02/13 07:19:10;;;;;;;30.98;5.30;;;9.30;97.40;;;;;;5085597;28;20044;-50
2024/02/13 07:21:36;;;;;;;30.33;5.78;;;9.30;97.40;;;;;;5086930;28;20499;-50
2024/02/13 07:24:01;;;;;;;32.38;4.95;;;9.30;97.30;;;;;;5085549;28;20040;-50
2024/02/13 07:26:27;;;;;;;34.85;5.88;;;9.30;97.30;;;;;;5086708;28;20040;-52
2024/02/13 07:28:52;;;;;;;26.80;6.05;;;9.30;97.20;;;;;;5086589;28;20039;-50
2024/02/13 07:31:19;;;;;;;32.70;5.65;;;9.30;97.30;;;;;;5085382;28;20025;-51
2024/02/13 07:33:46;;;;;;;38.47;5.20;;;9.30;97.20;;;;;;5085353;28;20025;-50
2024/02/13 07:36:12;;;;;;;30.15;5.88;;;9.30;97.20;;;;;;5084479;28;20031;-49
2024/02/13 07:38:37;;;;;;;33.15;6.30;;;9.30;97.20;;;;;;5086432;28;20096;-51
2024/02/13 07:41:05;;;;;;;30.60;5.63;;;9.30;97.20;;;;;;5086239;28;20469;-50
2024/02/13 07:43:30;;;;;;;27.63;6.35;;;9.30;97.10;;;;;;5086227;28;20037;-50
2024/02/13 07:45:56;;;;;;;34.28;6.30;;;9.20;97.20;;;;;;5078588;28;20036;-51
2024/02/13 07:48:22;;;;;;;32.15;5.55;;;9.30;97.20;;;;;;5037622;28;20056;-50
2024/02/13 07:50:48;;;;;;;37.47;5.47;;;9.30;97.20;;;;;;5044196;28;20055;-51
2024/02/13 07:53:14;;;;;;;34.88;6.10;;;9.30;97.30;;;;;;5065981;28;20037;-50
2024/02/13 07:55:39;;;;;;;33.42;5.50;;;9.30;97.30;;;;;;5072489;28;20028;-50
2024/02/13 07:58:05;;;;;;;26.75;5.78;;;9.30;97.30;;;;;;5062733;28;20036;-50
2024/02/13 08:00:33;;;;;;;31.58;5.13;;;9.30;97.30;;;;;;5078694;28;20484;-50
2024/02/13 08:02:59;;;;;;;37.08;5.45;;;9.20;97.30;;;;;;5069248;28;20037;-50
2024/02/13 08:05:25;;;;;;;32.20;6.25;;;9.20;97.30;;;;;;5073934;28;20025;-50
2024/02/13 08:07:51;;;;;;;28.77;5.00;;;9.20;97.30;;;;;;5079766;28;20040;-50
2024/02/13 08:10:16;;;;;;;33.30;5.47;;;9.20;97.30;;;;;;5069353;28;20111;-50
2024/02/13 08:12:45;;;;;;;29.10;5.18;;;9.20;97.30;;;;;;5070986;28;20044;-51
2024/02/13 08:15:11;;;;;;;30.58;5.00;;;9.20;97.30;;;;;;5073432;28;20105;-50
2024/02/13 08:17:36;;;;;;;31.42;5.30;;;9.20;97.30;;;;;;5072921;28;20047;-50
2024/02/13 08:20:04;;;;;;;27.48;4.60;;;9.20;97.40;;;;;;5077034;28;20056;-50
2024/02/13 08:22:30;;;;;;;27.25;4.90;;;9.20;97.40;;;;;;5067946;28;20098;-50
2024/02/13 08:25:00;;;;;;;21.10;4.38;;;9.20;97.40;;;;;;5063842;28;20423;-50
2024/02/13 08:27:26;;;;;;;21.75;5.03;;;9.20;97.30;;;;;;5077773;28;20104;-50
2024/02/13 08:29:52;;;;;;;29.02;5.32;;;9.20;97.30;;;;;;5070126;28;20037;-50
2024/02/13 08:32:19;;;;;;;20.75;4.25;;;9.20;97.30;;;;;;5073227;28;20027;-50
2024/02/13 08:34:45;;;;;;;25.63;4.10;;;9.20;97.30;;;;;;5077348;28;20021;-51
2024/02/13 08:37:12;;;;;;;17.45;3.83;;;9.20;97.20;;;;;;5071479;28;20069;-50
2024/02/13 08:39:38;;;;;;;26.92;4.68;;;9.20;97.30;;;;;;5080793;28;20033;-51
2024/02/13 08:42:04;;;;;;;23.63;4.40;;;9.10;97.30;;;;;;5070121;28;20056;-50
2024/02/13 08:44:30;;;;;;;23.02;5.25;;;9.20;97.30;;;;;;5065048;28;20037;-50
2024/02/13 08:46:56;;;;;;;18.77;4.10;;;9.10;97.30;;;;;;5067418;28;20028;-50
2024/02/13 08:49:21;;;;;;;34.13;5.13;;;9.10;97.30;;;;;;5068832;28;20088;-51
2024/02/13 08:51:48;;;;;;;28.70;4.65;;;9.10;97.30;;;;;;5049487;28;20105;-51
2024/02/13 08:54:14;;;;;;;24.75;4.93;;;9.10;97.30;;;;;;5054475;28;20053;-50
2024/02/13 08:56:39;;;;;;;26.20;5.35;;;9.10;97.40;;;;;;5065840;28;20437;-50
2024/02/13 08:59:06;;;;;;;25.33;4.68;;;9.20;97.40;;;;;;5066200;28;20037;-51
2024/02/13 09:01:32;;;;;;;29.00;4.43;;;9.20;97.30;;;;;;5070836;28;20029;-51
2024/02/13 09:03:58;;;;;;;38.22;6.38;;;9.20;97.30;;;;;;5070873;28;20101;-50
2024/02/13 09:06:23;;;;;;;27.65;5.43;;;9.20;97.30;;;;;;5068848;28;20021;-51
2024/02/13 09:08:49;;;;;;;26.30;5.05;;;9.20;97.40;;;;;;5063690;28;20033;-50
2024/02/13 09:11:15;;;;;;;26.88;5.00;;;9.20;97.30;;;;;;5066220;28;20043;-50
2024/02/13 09:13:41;;;;;;;26.25;4.80;;;9.20;97.20;;;;;;5068718;28;20033;-50
2024/02/13 09:16:07;;;;;;;33.05;6.00;;;9.20;97.50;;;;;;5059078;28;20021;-50
2024/02/13 09:18:33;;;;;;;24.55;5.53;;;9.20;97.20;;;;;;5050753;28;20128;-50
2024/02/13 09:21:00;;;;;;;38.53;5.43;;;9.20;97.10;;;;;;5074619;28;20106;-50
2024/02/13 09:23:30;;;;;;;66.00;8.45;;;9.20;97.10;;;;;;5075621;28;20040;-50
2024/02/13 09:25:55;;;;;;;41.90;6.03;;;9.20;97.10;;;;;;5073357;28;20024;-50
2024/02/13 09:28:25;;;;;;;35.72;6.32;;;9.20;97.10;;;;;;5071027;28;20031;-50
2024/02/13 09:30:51;;;;;;;47.95;5.93;;;9.20;97.10;;;;;;5075918;28;20481;-50
2024/02/13 09:33:21;;;;;;;35.22;5.57;;;9.20;97.20;;;;;;5079423;28;20041;-50
2024/02/13 09:35:50;;;;;;;31.27;4.95;;;9.20;97.20;;;;;;5060096;28;20066;-50
2024/02/13 09:38:18;;;;;;;35.55;5.88;;;9.20;97.10;;;;;;5067200;28;20059;-50
2024/02/13 09:40:45;;;;;;;40.17;6.13;;;9.20;97.10;;;;;;5071889;28;20729;-50
2024/02/13 09:43:11;;;;;;;51.53;7.22;;;9.20;97.10;;;;;;5080287;28;20060;-50
2024/02/13 09:45:41;;;;;;;41.58;6.35;;;9.30;97.20;;;;;;5064601;28;20393;-50
2024/02/13 09:48:15;;;;;;;33.58;5.20;;;9.20;97.20;;;;;;5067118;28;20109;-50
2024/02/13 09:50:43;;;;;;;28.67;5.15;;;9.30;97.20;;;;;;5074520;28;20551;-50
2024/02/13 09:53:21;;;;;;;51.92;6.65;;;9.30;97.20;;;;;;5072638;28;20051;-50
2024/02/13 09:55:47;;;;;;;33.85;5.68;;;9.30;97.20;;;;;;5078543;28;20031;-50
2024/02/13 09:58:13;;;;;;;42.22;7.05;;;9.30;97.20;;;;;;5072663;28;20037;-50
2024/02/13 10:00:41;;;;;;;46.15;6.72;;;9.30;97.20;;;;;;5083381;28;20039;-50
2024/02/13 10:03:06;;;;;;;60.17;8.18;;;9.30;97.20;;;;;;5057395;28;20024;-51
2024/02/13 10:05:34;;;;;;;83.18;9.82;;;9.30;97.30;;;;;;5060165;28;20045;-50
2024/02/13 10:08:00;;;;;;;64.10;8.65;;;9.30;97.30;;;;;;5046418;28;20029;-50
2024/02/13 10:10:26;;;;;;;58.42;7.65;;;9.30;97.40;;;;;;5077209;28;20104;-50
2024/02/13 10:12:53;;;;;;;54.35;6.85;;;9.40;97.40;;;;;;5069607;28;20051;-50
2024/02/13 10:15:22;;;;;;;60.10;8.57;;;9.40;97.40;;;;;;5086179;28;20114;-50
2024/02/13 10:17:49;;;;;;;70.07;10.07;;;9.40;97.40;;;;;;5052801;28;20465;-50
2024/02/13 10:20:17;;;;;;;40.90;7.35;;;9.40;97.40;;;;;;5073547;28;20043;-50
2024/02/13 10:22:46;;;;;;;59.53;8.13;;;9.40;97.20;;;;;;5076259;28;20053;-50
2024/02/13 10:25:13;;;;;;;62.10;8.05;;;9.40;97.10;;;;;;5060320;28;20028;-50
2024/02/13 10:27:40;;;;;;;53.20;6.90;;;9.40;97.00;;;;;;5062045;28;20029;-50
2024/02/13 10:30:06;;;;;;;45.33;6.57;;;9.50;97.00;;;;;;5068168;28;20017;-50
2024/02/13 10:32:38;;;;;;;51.53;7.18;;;9.40;96.90;;;;;;5053215;28;20020;-50
2024/02/13 10:35:06;;;;;;;54.90;7.47;;;9.50;96.90;;;;;;5067310;28;20016;-50
2024/02/13 10:37:31;;;;;;;52.97;6.65;;;9.50;96.80;;;;;;5066884;28;20035;-51
2024/02/13 10:39:58;;;;;;;43.92;6.97;;;9.50;96.90;;;;;;5075063;28;20053;-50
2024/02/13 10:42:26;;;;;;;55.65;7.35;;;9.50;96.80;;;;;;5065712;28;20457;-50
2024/02/13 10:44:52;;;;;;;61.55;7.18;;;9.50;96.70;;;;;;5058648;28;20032;-51
2024/02/13 10:47:19;;;;;;;61.95;8.40;;;9.60;96.70;;;;;;5066590;28;20087;-50
2024/02/13 10:49:53;;;;;;;57.67;7.70;;;9.60;96.60;;;;;;5071205;28;20078;-50
2024/02/13 10:52:20;;;;;;;66.35;7.00;;;9.60;96.70;;;;;;5082944;28;20046;-50
2024/02/13 10:54:47;;;;;;;46.17;8.05;;;9.60;96.60;;;;;;5060061;28;20033;-50
2024/02/13 10:57:18;;;;;;;54.20;8.52;;;9.60;96.60;;;;;;5074723;28;20017;-50
2024/02/13 10:59:47;;;;;;;51.28;8.20;;;9.60;96.70;;;;;;5055514;28;20045;-50
2024/02/13 11:02:14;;;;;;;63.60;7.40;;;9.70;96.70;;;;;;5054070;28;20040;-50
2024/02/13 11:04:43;;;;;;;38.40;6.63;;;9.60;96.50;;;;;;5045559;28;20101;-50
2024/02/13 11:07:13;;;;;;;37.47;6.05;;;9.60;96.30;;;;;;5053064;28;20087;-50
2024/02/13 11:09:39;;;;;;;40.10;6.10;;;9.70;96.10;;;;;;5040169;28;20076;-50
2024/02/13 11:12:05;;;;;;;48.08;7.53;;;9.70;96.10;;;;;;5029314;28;20033;-49
2024/02/13 11:14:31;;;;;;;51.85;8.15;;;9.70;96.10;;;;;;5054807;28;20508;-49
2024/02/13 11:16:57;;;;;;;63.55;8.60;;;9.70;96.10;;;;;;5059691;28;20101;-50
2024/02/13 11:19:24;;;;;;;59.70;6.85;;;9.70;96.10;;;;;;5055607;28;20040;-49
2024/02/13 11:21:51;;;;;;;58.75;8.10;;;9.80;96.10;;;;;;5054151;28;20037;-49
2024/02/13 11:24:23;;;;;;;54.95;6.68;;;9.80;96.10;;;;;;5058702;28;20231;-49
2024/02/13 11:26:49;;;;;;;57.80;7.50;;;9.80;96.10;;;;;;5051942;28;20260;-49
2024/02/13 11:29:19;;;;;;;48.35;6.53;;;9.80;96.10;;;;;;5062075;28;20029;-49
2024/02/13 11:31:55;;;;;;;48.85;7.22;;;9.80;95.90;;;;;;5061332;28;20033;-50
2024/02/13 11:34:22;;;;;;;56.05;7.03;;;9.90;96.00;;;;;;5057000;28;20036;-49
2024/02/13 11:36:49;;;;;;;66.43;8.05;;;9.90;95.90;;;;;;5024754;28;20096;-49
2024/02/13 11:39:14;;;;;;;65.15;7.75;;;9.90;95.90;;;;;;5053321;28;20043;-49
2024/02/13 11:41:40;;;;;;;68.47;7.88;;;9.90;95.80;;;;;;5063042;28;20040;-49
2024/02/13 11:44:11;;;;;;;66.63;8.45;;;9.90;95.90;;;;;;5054828;28;20033;-50
2024/02/13 11:46:53;;;;;;;52.35;7.07;;;10.00;96.00;;;;;;5039465;28;20033;-50
2024/02/13 11:49:19;;;;;;;40.00;6.10;;;10.00;95.70;;;;;;5051513;28;20397;-49
2024/02/13 11:51:45;;;;;;;45.35;4.95;;;10.00;95.50;;;;;;5052450;28;20029;-49
2024/02/13 11:54:10;;;;;;;37.75;5.47;;;10.00;95.40;;;;;;5042419;28;20030;-49
2024/02/13 11:56:36;;;;;;;45.97;7.35;;;10.00;95.40;;;;;;5062914;28;20116;-49
2024/02/13 11:59:03;;;;;;;42.30;6.68;;;10.00;95.40;;;;;;5062519;28;20033;-49
2024/02/13 12:01:33;;;;;;;40.13;5.63;;;10.10;95.30;;;;;;5057569;28;20314;-48
2024/02/13 12:03:58;;;;;;;58.97;6.43;;;10.10;95.20;;;;;;5068411;28;20037;-49
2024/02/13 12:06:24;;;;;;;64.63;6.50;;;10.10;95.20;;;;;;5074276;28;20030;-49
2024/02/13 12:08:50;;;;;;;65.18;6.68;;;10.10;95.30;;;;;;5064622;28;20055;-49
2024/02/13 12:11:16;;;;;;;52.90;7.00;;;10.10;95.30;;;;;;5055474;28;20032;-49
2024/02/13 12:13:41;;;;;;;72.20;9.00;;;10.10;95.40;;;;;;5053808;28;20052;-50
2024/02/13 12:16:09;;;;;;;55.65;7.18;;;10.10;95.40;;;;;;5045873;28;20068;-50
2024/02/13 12:18:37;;;;;;;47.35;6.80;;;10.20;95.40;;;;;;5051960;28;20119;-49
2024/02/13 12:21:07;;;;;;;52.10;7.00;;;10.20;95.20;;;;;;5079453;28;20705;-49
2024/02/13 12:23:33;;;;;;;46.83;5.93;;;10.20;95.20;;;;;;5059072;28;20037;-50
2024/02/13 12:26:02;;;;;;;41.10;6.15;;;10.20;95.10;;;;;;5076182;28;20029;-49
2024/02/13 12:28:28;;;;;;;32.72;5.43;;;10.20;94.80;;;;;;5074226;28;20047;-49
2024/02/13 12:30:55;;;;;;;53.22;6.00;;;10.30;94.70;;;;;;5069556;28;20033;-49
2024/02/13 12:33:20;;;;;;;38.53;5.13;;;10.20;94.70;;;;;;5058125;28;20059;-49
2024/02/13 12:36:18;;;;;;;28.10;5.93;;;10.20;94.70;;;;;;5064178;28;20021;-49
2024/02/13 12:38:44;;;;;;;49.63;6.45;;;10.30;94.60;;;;;;5057823;28;20036;-49
2024/02/13 12:41:10;;;;;;;41.08;5.15;;;10.30;94.70;;;;;;5043954;28;20044;-49
2024/02/13 12:43:36;;;;;;;23.48;4.20;;;10.30;94.50;;;;;;5061533;28;20029;-50
2024/02/13 12:46:05;;;;;;;28.40;4.78;;;10.30;94.50;;;;;;5050802;28;20495;-49